Time;durP1;ratioP1;P1;durP2;ratioP2;P2;SDS_P1;SDS_P2;PMS_P1;PMS_P2;Temp;Humidity;BMP_temperature;BMP_pressure;BME280_temperature;BME280_humidity;BME280_pressure;Samples;Min_cycle;Max_cycle;Signal;HPM_P1;HPM_P2
2023/05/08 00:00:03;;;;;;;4.32;2.75;;;18.90;99.90;;;;;;10133678;28;20521;-55
2023/05/08 00:04:54;;;;;;;3.08;2.00;;;18.90;99.90;;;;;;10109999;28;20035;-57
2023/05/08 00:09:44;;;;;;;3.13;2.50;;;18.80;99.90;;;;;;10115238;28;20127;-54
2023/05/08 00:14:35;;;;;;;7.57;3.25;;;18.90;99.90;;;;;;10133888;28;20295;-54
2023/05/08 00:19:26;;;;;;;4.00;3.00;;;18.90;99.90;;;;;;10135483;28;20203;-53
2023/05/08 00:24:16;;;;;;;6.32;2.97;;;18.80;99.90;;;;;;10121018;28;20127;-54
2023/05/08 00:29:07;;;;;;;3.90;2.55;;;18.80;99.90;;;;;;10136423;28;20131;-55
2023/05/08 00:33:58;;;;;;;4.40;2.80;;;18.90;99.90;;;;;;10142930;28;20043;-52
2023/05/08 00:38:48;;;;;;;2.63;2.30;;;18.80;99.90;;;;;;10152645;28;20024;-58
2023/05/08 00:43:39;;;;;;;5.05;2.60;;;18.90;99.90;;;;;;10144705;28;20033;-53
2023/05/08 00:48:33;;;;;;;3.78;2.50;;;18.90;99.90;;;;;;10145534;28;20154;-56
2023/05/08 00:53:25;;;;;;;2.90;2.33;;;18.80;99.90;;;;;;10143990;28;20036;-57
2023/05/08 00:58:16;;;;;;;3.80;2.53;;;18.80;99.90;;;;;;10148888;28;20024;-57
2023/05/08 01:03:08;;;;;;;5.97;2.78;;;18.60;99.90;;;;;;10142798;28;20033;-54
2023/05/08 01:07:58;;;;;;;3.35;2.45;;;18.50;99.90;;;;;;10142355;28;20020;-53
2023/05/08 01:13:10;;;;;;;3.22;2.88;;;18.40;99.90;;;;;;10141746;28;20758;-52
2023/05/08 01:18:26;;;;;;;6.15;3.10;;;18.40;99.90;;;;;;10142339;28;20312;-57
2023/05/08 01:23:55;;;;;;;7.63;3.72;;;18.40;99.90;;;;;;10150131;28;20379;-55
2023/05/08 01:29:05;;;;;;;5.10;2.92;;;18.70;99.90;;;;;;10137066;28;20439;-53
2023/05/08 01:34:07;;;;;;;4.03;2.92;;;18.70;99.90;;;;;;10145033;28;20106;-55
2023/05/08 01:39:28;;;;;;;2.95;2.30;;;18.60;99.90;;;;;;10141039;28;20387;-51
2023/05/08 01:44:23;;;;;;;4.60;3.35;;;18.60;99.90;;;;;;10154641;28;20037;-56
2023/05/08 01:49:25;;;;;;;3.28;2.92;;;18.30;99.90;;;;;;10140905;28;20047;-55
2023/05/08 01:54:21;;;;;;;5.95;3.60;;;18.20;99.90;;;;;;10141344;28;20043;-54
2023/05/08 01:59:15;;;;;;;5.13;2.92;;;18.10;99.90;;;;;;10140523;28;20490;-57
2023/05/08 02:04:08;;;;;;;6.93;3.60;;;18.20;99.90;;;;;;10143965;28;20432;-63
2023/05/08 02:08:59;;;;;;;5.70;4.03;;;18.20;99.90;;;;;;10139766;28;20044;-53
2023/05/08 02:13:51;;;;;;;5.40;3.75;;;18.20;99.90;;;;;;10105133;28;20040;-52
2023/05/08 02:18:49;;;;;;;4.68;3.53;;;18.20;99.90;;;;;;10152938;28;20024;-52
2023/05/08 02:23:42;;;;;;;6.32;4.07;;;18.20;99.90;;;;;;10131336;28;20035;-53
2023/05/08 02:28:35;;;;;;;5.97;5.05;;;18.20;99.90;;;;;;10142188;28;20059;-55
2023/05/08 02:33:28;;;;;;;6.88;3.70;;;18.00;99.90;;;;;;10139068;28;20075;-54
2023/05/08 02:38:20;;;;;;;3.83;3.45;;;18.00;99.90;;;;;;10138578;28;20183;-59
2023/05/08 02:43:11;;;;;;;5.65;3.58;;;18.10;99.90;;;;;;10138751;28;20042;-55
2023/05/08 02:48:18;;;;;;;7.53;4.85;;;18.20;99.90;;;;;;10146824;28;20035;-51
2023/05/08 02:53:15;;;;;;;6.97;4.63;;;18.00;99.90;;;;;;10130607;28;20047;-56
2023/05/08 02:58:33;;;;;;;6.00;3.97;;;18.10;99.90;;;;;;10135130;28;20411;-58
2023/05/08 03:03:48;;;;;;;7.25;4.05;;;18.00;99.90;;;;;;10134824;28;20058;-62
2023/05/08 03:08:40;;;;;;;6.47;3.80;;;18.20;99.90;;;;;;10122876;28;20025;-54
2023/05/08 03:13:34;;;;;;;7.72;4.57;;;18.20;99.90;;;;;;10137451;28;20039;-54
2023/05/08 03:18:33;;;;;;;6.03;4.05;;;18.20;99.90;;;;;;10141761;28;20422;-59
2023/05/08 03:23:28;;;;;;;5.53;4.20;;;18.20;99.90;;;;;;10133235;28;20024;-55
2023/05/08 03:28:20;;;;;;;6.70;4.57;;;18.20;99.90;;;;;;10138778;28;20515;-53
2023/05/08 03:33:11;;;;;;;7.40;5.18;;;18.10;99.90;;;;;;10138172;28;20408;-54
2023/05/08 03:38:04;;;;;;;9.10;4.50;;;18.00;99.90;;;;;;10138595;28;20078;-56
2023/05/08 03:42:55;;;;;;;7.70;4.68;;;18.00;99.90;;;;;;10148605;28;20501;-54
2023/05/08 03:47:46;;;;;;;7.55;4.57;;;18.10;99.90;;;;;;10138303;28;20038;-60
2023/05/08 03:52:37;;;;;;;7.55;4.97;;;17.90;99.90;;;;;;10136781;28;20040;-53
2023/05/08 03:57:44;;;;;;;6.78;5.15;;;18.10;99.90;;;;;;10136763;28;20028;-52
2023/05/08 04:02:46;;;;;;;5.78;4.47;;;18.10;99.90;;;;;;10135914;28;20386;-55
2023/05/08 04:07:46;;;;;;;7.45;3.95;;;18.20;99.90;;;;;;10135584;28;20425;-58
2023/05/08 04:12:36;;;;;;;7.43;4.80;;;18.10;99.90;;;;;;10140577;28;20033;-51
2023/05/08 04:17:38;;;;;;;6.45;4.10;;;18.20;99.90;;;;;;10136022;28;20027;-55
2023/05/08 04:22:30;;;;;;;5.97;4.10;;;18.10;99.90;;;;;;10138884;28;20051;-52
2023/05/08 04:27:21;;;;;;;4.22;3.08;;;18.00;99.90;;;;;;10135450;28;20479;-52
2023/05/08 04:32:13;;;;;;;4.47;2.97;;;18.10;99.90;;;;;;10135541;28;20044;-56
2023/05/08 04:37:06;;;;;;;4.78;3.03;;;18.10;99.90;;;;;;10136250;28;20021;-65
2023/05/08 04:42:01;;;;;;;3.45;2.50;;;18.10;99.90;;;;;;10134954;28;20430;-58
2023/05/08 04:46:52;;;;;;;3.88;2.90;;;18.10;99.90;;;;;;10136614;28;20271;-51
2023/05/08 04:51:42;;;;;;;4.40;3.42;;;18.10;99.90;;;;;;10143831;28;20283;-54
2023/05/08 04:56:33;;;;;;;5.97;3.85;;;18.20;99.90;;;;;;10135663;28;20156;-59
2023/05/08 05:01:23;;;;;;;7.70;3.95;;;18.20;99.90;;;;;;10134215;28;20024;-57
2023/05/08 05:06:14;;;;;;;7.05;5.05;;;18.20;99.90;;;;;;10142114;28;20025;-57
2023/05/08 05:11:05;;;;;;;6.43;4.78;;;18.00;99.90;;;;;;10133882;28;20047;-54
2023/05/08 05:15:58;;;;;;;7.85;5.00;;;18.00;99.90;;;;;;10134298;28;20013;-61
2023/05/08 05:20:49;;;;;;;7.80;4.65;;;18.10;99.90;;;;;;10143860;28;20020;-67
2023/05/08 05:25:39;;;;;;;7.32;4.72;;;18.20;99.90;;;;;;10142079;28;20505;-56
2023/05/08 05:30:30;;;;;;;7.93;5.72;;;18.20;99.90;;;;;;10141607;28;20043;-59
2023/05/08 05:35:21;;;;;;;7.43;4.95;;;18.30;99.90;;;;;;10145856;28;20124;-54
2023/05/08 05:40:14;;;;;;;7.18;5.60;;;18.30;99.90;;;;;;10140529;28;20115;-65
2023/05/08 05:45:05;;;;;;;7.50;4.15;;;18.20;99.90;;;;;;10140984;28;20251;-61
2023/05/08 05:49:57;;;;;;;5.40;4.57;;;18.30;99.90;;;;;;10141418;28;20131;-64
2023/05/08 05:54:48;;;;;;;6.63;4.40;;;18.40;99.90;;;;;;10141071;28;20040;-63
2023/05/08 05:59:40;;;;;;;8.52;5.50;;;18.20;99.90;;;;;;10122611;28;20056;-54
2023/05/08 06:04:30;;;;;;;8.30;4.63;;;18.20;99.90;;;;;;10134345;28;20032;-61
2023/05/08 06:09:21;;;;;;;8.40;5.95;;;18.20;99.90;;;;;;10133679;28;20052;-54
2023/05/08 06:14:12;;;;;;;8.23;5.03;;;18.50;99.90;;;;;;10132789;28;20029;-54
2023/05/08 06:19:02;;;;;;;6.30;5.15;;;18.40;99.90;;;;;;10136530;28;20052;-54
2023/05/08 06:23:53;;;;;;;8.73;4.78;;;18.40;99.90;;;;;;10141091;28;20056;-53
2023/05/08 06:28:44;;;;;;;8.02;5.07;;;18.20;99.90;;;;;;10140409;28;20028;-53
2023/05/08 06:33:34;;;;;;;8.93;5.53;;;18.20;99.90;;;;;;10144772;28;20044;-57
2023/05/08 06:38:25;;;;;;;6.63;5.10;;;18.30;99.90;;;;;;10138235;28;20346;-51
2023/05/08 06:43:16;;;;;;;8.13;5.15;;;18.40;99.90;;;;;;10138961;28;20112;-63
2023/05/08 06:48:06;;;;;;;10.18;5.93;;;18.40;99.90;;;;;;10138590;28;20493;-54
2023/05/08 06:52:57;;;;;;;7.10;5.00;;;18.50;99.90;;;;;;10137605;28;20057;-54
2023/05/08 06:57:48;;;;;;;9.43;5.65;;;18.30;99.90;;;;;;10137660;28;20024;-57
2023/05/08 07:02:38;;;;;;;9.82;6.18;;;18.30;99.90;;;;;;10137508;28;20060;-56
2023/05/08 07:07:29;;;;;;;10.13;6.47;;;18.20;99.90;;;;;;10147250;28;20024;-55
2023/05/08 07:12:20;;;;;;;10.05;6.57;;;18.40;99.90;;;;;;10146483;28;20044;-59
2023/05/08 07:17:10;;;;;;;10.60;6.55;;;18.60;99.90;;;;;;10137888;28;20032;-57
2023/05/08 07:22:01;;;;;;;8.52;5.85;;;18.40;99.90;;;;;;10137911;28;20046;-56
2023/05/08 07:26:52;;;;;;;10.32;6.40;;;18.60;99.90;;;;;;10138462;28;20490;-55
2023/05/08 07:31:44;;;;;;;10.55;7.82;;;18.60;99.90;;;;;;10137339;28;20044;-57
2023/05/08 07:36:35;;;;;;;9.35;6.38;;;18.70;99.90;;;;;;10135002;28;20032;-56
2023/05/08 07:41:26;;;;;;;11.23;6.63;;;18.80;99.90;;;;;;10137310;28;20027;-61
2023/05/08 07:46:17;;;;;;;10.10;6.40;;;18.90;99.90;;;;;;10136734;28;20476;-57
2023/05/08 07:51:10;;;;;;;10.43;6.40;;;18.90;99.90;;;;;;10137676;28;20157;-52
2023/05/08 07:56:00;;;;;;;8.98;6.13;;;18.90;99.90;;;;;;10138900;28;20446;-54
2023/05/08 08:00:51;;;;;;;7.47;5.38;;;18.90;99.90;;;;;;10130281;28;20052;-53
2023/05/08 08:05:42;;;;;;;8.80;5.65;;;18.90;99.90;;;;;;10118966;28;20528;-58
2023/05/08 08:10:32;;;;;;;8.23;4.72;;;19.00;99.90;;;;;;10131605;28;20040;-63
2023/05/08 08:15:23;;;;;;;6.68;5.00;;;19.10;99.90;;;;;;10125747;28;20021;-54
2023/05/08 08:20:14;;;;;;;7.22;4.72;;;19.00;99.90;;;;;;10125241;28;20490;-53
2023/05/08 08:25:05;;;;;;;8.15;4.38;;;19.00;99.90;;;;;;10124200;28;20082;-55
2023/05/08 08:29:55;;;;;;;6.15;4.40;;;19.10;99.90;;;;;;10124716;28;20383;-57
2023/05/08 08:34:46;;;;;;;8.43;5.32;;;19.20;99.90;;;;;;10123517;28;20025;-60
2023/05/08 08:39:37;;;;;;;8.05;4.20;;;19.40;99.90;;;;;;10121051;28;20033;-55
2023/05/08 08:44:27;;;;;;;8.82;5.32;;;19.70;99.90;;;;;;10135884;28;20059;-54
2023/05/08 08:49:27;;;;;;;10.30;5.03;;;19.90;99.90;;;;;;10146653;28;20076;-55
2023/05/08 08:54:23;;;;;;;5.22;3.80;;;20.10;99.90;;;;;;10138839;28;20105;-53
2023/05/08 08:59:16;;;;;;;7.97;3.97;;;20.00;99.90;;;;;;10157331;28;20029;-56
2023/05/08 09:04:07;;;;;;;5.30;3.80;;;20.20;99.90;;;;;;10143813;28;20070;-53
2023/05/08 09:08:58;;;;;;;5.88;4.32;;;20.30;99.90;;;;;;10140370;28;20040;-55
2023/05/08 09:13:49;;;;;;;6.55;4.28;;;20.40;99.90;;;;;;10120548;28;20024;-56
2023/05/08 09:18:40;;;;;;;3.83;3.30;;;20.50;99.90;;;;;;10146042;28;20024;-57
2023/05/08 09:23:30;;;;;;;4.32;3.90;;;20.70;99.90;;;;;;10141525;28;20028;-54
2023/05/08 09:28:25;;;;;;;4.75;3.28;;;20.60;99.90;;;;;;10141505;28;20024;-57
2023/05/08 09:33:17;;;;;;;5.13;3.58;;;20.50;99.90;;;;;;10135824;28;20441;-57
2023/05/08 09:38:08;;;;;;;4.80;4.10;;;20.50;99.90;;;;;;10141586;28;20040;-54
2023/05/08 09:43:14;;;;;;;5.47;3.72;;;20.40;99.90;;;;;;10141437;28;20032;-54
2023/05/08 09:48:05;;;;;;;4.72;3.03;;;20.60;99.90;;;;;;10147199;28;20451;-55
2023/05/08 09:52:56;;;;;;;4.47;2.65;;;20.90;99.90;;;;;;10140629;28;20497;-54
2023/05/08 09:57:55;;;;;;;5.53;3.50;;;21.00;99.90;;;;;;10144688;28;20051;-61
2023/05/08 10:02:57;;;;;;;5.07;4.18;;;20.80;99.90;;;;;;10145339;28;20032;-61
2023/05/08 10:07:48;;;;;;;5.30;3.45;;;21.00;99.90;;;;;;10141125;28;20024;-56
2023/05/08 10:12:40;;;;;;;4.45;2.95;;;20.90;99.90;;;;;;10140291;28;20525;-54
2023/05/08 10:17:43;;;;;;;8.65;3.88;;;21.00;99.90;;;;;;10147563;28;20111;-62
2023/05/08 10:22:36;;;;;;;4.18;3.08;;;21.20;99.90;;;;;;10142220;28;20035;-52
2023/05/08 10:27:41;;;;;;;4.82;3.58;;;21.30;99.90;;;;;;10138468;28;20495;-60
2023/05/08 10:32:44;;;;;;;4.03;3.42;;;21.50;99.90;;;;;;10122290;28;20051;-51
2023/05/08 10:37:36;;;;;;;6.18;2.55;;;21.50;99.90;;;;;;10120281;28;20115;-55
2023/05/08 10:42:27;;;;;;;3.97;2.70;;;21.70;99.90;;;;;;10144965;28;20032;-59
2023/05/08 10:47:41;;;;;;;3.60;2.72;;;21.70;99.90;;;;;;10141791;28;20035;-53
2023/05/08 10:52:51;;;;;;;3.95;2.65;;;22.00;99.90;;;;;;10090892;28;20064;-56
2023/05/08 10:58:24;;;;;;;4.63;2.83;;;22.10;99.90;;;;;;10138391;28;20030;-55
2023/05/08 11:03:16;;;;;;;10.43;5.65;;;22.00;99.90;;;;;;10126364;28;20048;-62
2023/05/08 11:08:15;;;;;;;5.47;4.68;;;21.80;99.90;;;;;;10137585;28;20102;-58
2023/05/08 11:13:07;;;;;;;4.35;2.50;;;21.80;99.90;;;;;;10141092;28;20051;-62
2023/05/08 11:17:57;;;;;;;4.07;2.42;;;21.90;99.90;;;;;;10143668;28;20036;-58
2023/05/08 11:22:48;;;;;;;5.72;2.85;;;22.20;99.90;;;;;;10143923;28;20025;-64
2023/05/08 11:27:48;;;;;;;4.15;2.28;;;22.40;99.90;;;;;;10136096;28;20030;-60
2023/05/08 11:32:58;;;;;;;1.98;1.75;;;22.40;99.90;;;;;;10141637;28;20044;-66
2023/05/08 11:38:17;;;;;;;4.50;3.08;;;22.40;99.90;;;;;;10129042;28;20498;-58
2023/05/08 11:43:44;;;;;;;3.40;2.30;;;22.20;99.90;;;;;;10132692;28;20121;-66
2023/05/08 11:48:35;;;;;;;2.78;2.50;;;22.00;99.90;;;;;;10135014;28;20529;-69
2023/05/08 11:53:26;;;;;;;3.47;2.28;;;21.90;99.90;;;;;;10146168;28;20066;-67
2023/05/08 11:58:16;;;;;;;4.00;3.30;;;21.90;99.90;;;;;;10135289;28;20097;-63
2023/05/08 12:03:11;;;;;;;3.90;2.97;;;21.90;99.90;;;;;;10135975;28;20518;-64
2023/05/08 12:08:05;;;;;;;;;;;21.80;99.90;;;;;;10139032;28;20083;-59
2023/05/08 12:12:55;;;;;;;2.92;2.58;;;21.40;99.90;;;;;;10133918;28;19947;-65
2023/05/08 12:17:46;;;;;;;2.72;2.45;;;21.20;99.90;;;;;;10136003;28;20100;-65
2023/05/08 12:22:38;;;;;;;4.53;3.28;;;21.00;99.90;;;;;;10139130;28;20068;-70
2023/05/08 12:27:29;;;;;;;3.42;2.13;;;21.00;99.90;;;;;;10138266;28;20025;-57
2023/05/08 12:32:19;;;;;;;4.22;2.70;;;20.70;99.90;;;;;;10156849;28;20442;-57
2023/05/08 12:37:10;;;;;;;5.40;3.20;;;20.40;99.90;;;;;;10144655;28;20439;-57
2023/05/08 12:42:01;;;;;;;4.65;3.28;;;20.40;99.90;;;;;;10143774;28;20040;-59
2023/05/08 12:46:53;;;;;;;6.07;3.05;;;20.50;99.90;;;;;;10143158;28;20512;-56
2023/05/08 12:51:47;;;;;;;4.60;2.70;;;20.60;99.90;;;;;;10148941;28;20072;-60
2023/05/08 12:56:43;;;;;;;4.28;2.58;;;20.90;99.90;;;;;;10143698;28;20035;-55
2023/05/08 13:01:34;;;;;;;4.55;3.03;;;21.30;99.90;;;;;;10142467;28;20498;-64
2023/05/08 13:06:24;;;;;;;4.57;3.10;;;21.50;99.90;;;;;;10142371;28;20029;-64
2023/05/08 13:11:30;;;;;;;5.60;2.60;;;23.90;99.90;;;;;;10141723;28;20093;-60
2023/05/08 13:16:21;;;;;;;4.85;3.85;;;26.80;99.90;;;;;;10145125;28;20029;-60
2023/05/08 13:21:12;;;;;;;3.15;2.63;;;28.80;99.90;;;;;;10143873;28;20032;-62
2023/05/08 13:26:03;;;;;;;3.40;2.40;;;26.80;99.90;;;;;;10141270;28;20087;-68
2023/05/08 13:30:53;;;;;;;5.80;4.10;;;25.20;99.90;;;;;;10145449;28;20517;-61
2023/05/08 13:35:44;;;;;;;5.00;3.42;;;24.90;99.90;;;;;;10144535;28;20024;-54
2023/05/08 13:40:35;;;;;;;3.80;3.15;;;24.60;99.90;;;;;;10140798;28;20870;-56
2023/05/08 13:45:25;;;;;;;8.30;5.85;;;24.50;99.90;;;;;;10139774;28;20103;-59
2023/05/08 13:50:18;;;;;;;6.10;3.25;;;25.80;99.90;;;;;;10146078;28;20111;-55
2023/05/08 13:55:10;;;;;;;4.97;3.45;;;26.10;99.80;;;;;;10148812;28;20175;-56
2023/05/08 14:00:03;;;;;;;4.57;3.08;;;25.30;99.90;;;;;;10142001;28;20537;-54
2023/05/08 14:04:54;;;;;;;4.18;2.35;;;24.60;99.90;;;;;;10137568;28;20024;-60
2023/05/08 14:09:45;;;;;;;4.05;2.30;;;24.50;99.90;;;;;;10156977;28;20036;-54
2023/05/08 14:14:36;;;;;;;4.00;2.83;;;25.70;99.40;;;;;;10142508;28;20029;-55
2023/05/08 14:19:26;;;;;;;2.90;2.15;;;27.70;98.60;;;;;;10135582;28;20025;-58
2023/05/08 14:24:17;;;;;;;2.60;2.38;;;30.10;96.90;;;;;;10153854;28;20035;-60
2023/05/08 14:29:08;;;;;;;2.83;2.17;;;28.30;97.30;;;;;;10144347;28;20104;-61
2023/05/08 14:33:58;;;;;;;2.30;1.90;;;29.00;97.00;;;;;;10121650;28;20437;-54
2023/05/08 14:38:50;;;;;;;1.90;1.75;;;28.60;96.60;;;;;;10138451;28;20259;-55
2023/05/08 14:43:41;;;;;;;1.80;1.65;;;27.60;96.70;;;;;;10143401;28;20017;-55
2023/05/08 14:48:32;;;;;;;3.55;2.03;;;26.10;97.10;;;;;;10138244;28;20470;-58
2023/05/08 14:53:23;;;;;;;3.00;2.67;;;24.90;97.50;;;;;;10137501;28;20045;-55
2023/05/08 14:58:13;;;;;;;3.50;2.42;;;24.30;97.80;;;;;;10138682;28;20035;-54
2023/05/08 15:03:04;;;;;;;2.72;2.30;;;25.00;97.40;;;;;;10134656;28;20459;-57
2023/05/08 15:07:55;;;;;;;5.22;3.00;;;27.80;96.40;;;;;;10112445;28;20123;-59
2023/05/08 15:12:45;;;;;;;2.40;2.17;;;28.00;96.10;;;;;;10110725;28;20052;-56
2023/05/08 15:17:36;;;;;;;3.97;2.88;;;26.80;96.80;;;;;;10131809;28;20033;-56
2023/05/08 15:22:27;;;;;;;3.33;2.40;;;26.30;97.40;;;;;;10131612;28;20040;-55
2023/05/08 15:27:17;;;;;;;4.00;2.70;;;27.40;96.70;;;;;;10142057;28;20048;-58
2023/05/08 15:32:08;;;;;;;2.72;2.08;;;27.90;96.00;;;;;;10137200;28;20097;-60
2023/05/08 15:36:59;;;;;;;3.63;2.50;;;27.50;96.30;;;;;;10118407;28;20449;-55
2023/05/08 15:41:50;;;;;;;2.78;1.95;;;28.30;95.80;;;;;;10128959;28;20103;-54
2023/05/08 15:46:40;;;;;;;2.35;2.03;;;27.40;95.80;;;;;;10136208;28;20461;-57
2023/05/08 15:51:31;;;;;;;2.45;1.90;;;27.70;95.60;;;;;;10139574;28;20216;-58
2023/05/08 15:56:24;;;;;;;2.50;1.90;;;29.60;94.40;;;;;;10124584;28;20060;-56
2023/05/08 16:01:15;;;;;;;2.38;2.15;;;30.90;93.10;;;;;;10135427;28;20025;-55
2023/05/08 16:06:05;;;;;;;4.47;2.35;;;30.90;92.80;;;;;;10136062;28;20032;-59
2023/05/08 16:10:56;;;;;;;3.35;2.85;;;31.60;91.90;;;;;;10135176;28;20102;-55
2023/05/08 16:15:47;;;;;;;3.55;2.78;;;30.00;92.60;;;;;;10136329;28;20020;-57
2023/05/08 16:20:40;;;;;;;3.65;2.75;;;30.50;91.80;;;;;;10143558;28;20505;-58
2023/05/08 16:25:31;;;;;;;3.22;2.58;;;30.90;91.20;;;;;;10135913;28;20028;-56
2023/05/08 16:30:22;;;;;;;3.53;2.80;;;30.80;91.10;;;;;;10135656;28;20102;-59
2023/05/08 16:35:13;;;;;;;4.28;3.13;;;30.30;91.20;;;;;;10146542;28;20547;-66
2023/05/08 16:40:05;;;;;;;4.38;3.20;;;30.40;90.90;;;;;;10135455;28;20060;-66
2023/05/08 16:44:56;;;;;;;2.97;2.50;;;28.90;91.70;;;;;;10137136;28;20543;-66
2023/05/08 16:49:46;;;;;;;4.10;3.35;;;27.10;92.50;;;;;;10139199;28;20105;-72
2023/05/08 16:54:37;;;;;;;6.57;4.68;;;25.60;93.50;;;;;;10139134;28;20037;-68
2023/05/08 16:59:28;;;;;;;7.25;4.30;;;24.90;93.80;;;;;;10140380;28;20040;-68
2023/05/08 17:04:18;;;;;;;4.65;3.67;;;24.20;94.40;;;;;;10142021;28;20471;-65
2023/05/08 17:09:09;;;;;;;5.80;3.85;;;24.20;94.40;;;;;;10138572;28;20034;-65
2023/05/08 17:13:59;;;;;;;10.65;5.10;;;24.10;94.50;;;;;;10138873;28;20580;-73
2023/05/08 17:18:50;;;;;;;8.05;4.82;;;23.80;94.80;;;;;;10142894;28;20393;-60
2023/05/08 17:23:41;;;;;;;7.03;4.68;;;23.60;95.10;;;;;;10125523;28;20036;-71
2023/05/08 17:28:32;;;;;;;7.57;4.97;;;23.20;95.60;;;;;;10142456;28;20413;-63
2023/05/08 17:33:22;;;;;;;6.22;5.13;;;23.00;96.00;;;;;;10121396;28;20391;-67
2023/05/08 17:38:13;;;;;;;7.25;4.68;;;22.90;96.20;;;;;;10142423;28;20398;-66
2023/05/08 17:43:10;;;;;;;6.10;4.18;;;22.80;96.50;;;;;;10144329;28;20033;-67
2023/05/08 17:48:00;;;;;;;6.65;4.10;;;22.40;97.20;;;;;;10143808;28;20532;-54
2023/05/08 17:52:51;;;;;;;5.68;4.40;;;22.40;97.20;;;;;;10141858;28;20048;-56
2023/05/08 17:57:42;;;;;;;9.57;4.30;;;22.30;97.40;;;;;;10145051;28;20032;-54
2023/05/08 18:02:32;;;;;;;6.05;4.13;;;22.20;97.70;;;;;;10142602;28;20027;-54
2023/05/08 18:07:23;;;;;;;7.50;5.03;;;22.20;97.90;;;;;;10139986;28;20494;-57
2023/05/08 18:12:13;;;;;;;7.45;6.25;;;22.20;98.10;;;;;;10140555;28;20591;-55
2023/05/08 18:17:06;;;;;;;9.32;5.95;;;22.30;98.00;;;;;;10140907;28;20021;-60
2023/05/08 18:21:56;;;;;;;8.55;5.70;;;22.00;98.50;;;;;;10142030;28;20032;-55
2023/05/08 18:26:47;;;;;;;6.55;4.80;;;21.70;99.10;;;;;;10148243;28;20035;-61
2023/05/08 18:31:38;;;;;;;7.20;4.88;;;21.80;99.20;;;;;;10142825;28;20430;-62
2023/05/08 18:36:28;;;;;;;5.95;4.75;;;21.70;99.40;;;;;;10123985;28;20075;-60
2023/05/08 18:41:20;;;;;;;6.20;4.90;;;21.70;99.60;;;;;;10141264;28;20305;-51
2023/05/08 18:46:11;;;;;;;9.80;5.97;;;21.90;99.50;;;;;;10141245;28;20024;-63
2023/05/08 18:51:02;;;;;;;6.75;5.60;;;21.80;99.70;;;;;;10121707;28;20067;-58
2023/05/08 18:55:53;;;;;;;9.23;6.00;;;21.60;99.90;;;;;;10142079;28;20023;-55
2023/05/08 19:00:44;;;;;;;10.57;6.10;;;21.50;99.90;;;;;;10147561;28;20024;-56
2023/05/08 19:05:34;;;;;;;9.32;6.40;;;21.40;99.90;;;;;;10120505;28;20820;-53
2023/05/08 19:10:25;;;;;;;10.20;5.57;;;21.50;99.90;;;;;;10140677;28;20153;-55
2023/05/08 19:15:16;;;;;;;11.80;6.82;;;21.50;99.90;;;;;;10128766;28;20031;-56
2023/05/08 19:20:07;;;;;;;10.82;6.55;;;21.50;99.90;;;;;;10118790;28;20121;-53
2023/05/08 19:24:57;;;;;;;8.48;6.07;;;21.40;99.90;;;;;;10123049;28;20029;-55
2023/05/08 19:29:48;;;;;;;11.18;7.15;;;21.30;99.90;;;;;;10137415;28;20040;-53
2023/05/08 19:34:39;;;;;;;13.02;8.13;;;21.20;99.90;;;;;;10135599;28;20144;-64
2023/05/08 19:39:29;;;;;;;13.57;8.13;;;21.10;99.90;;;;;;10141945;28;20131;-68
2023/05/08 19:44:20;;;;;;;13.32;8.23;;;21.00;99.90;;;;;;10140820;28;20040;-64
2023/05/08 19:49:13;;;;;;;12.63;8.05;;;21.00;99.90;;;;;;10142260;28;20041;-59
2023/05/08 19:54:04;;;;;;;11.45;8.10;;;20.90;99.90;;;;;;10148279;28;20040;-59
2023/05/08 19:58:54;;;;;;;12.90;9.10;;;20.90;99.90;;;;;;10136726;28;20027;-62
2023/05/08 20:03:45;;;;;;;14.38;9.90;;;20.80;99.90;;;;;;10126644;28;20033;-60
2023/05/08 20:08:35;;;;;;;21.48;11.27;;;20.70;99.90;;;;;;10139807;28;20032;-60
2023/05/08 20:13:26;;;;;;;17.58;10.18;;;20.60;99.90;;;;;;10124232;28;20119;-63
2023/05/08 20:18:17;;;;;;;16.90;11.82;;;20.60;99.90;;;;;;10123270;28;20494;-68
2023/05/08 20:23:07;;;;;;;16.08;10.77;;;20.30;99.90;;;;;;10131632;28;20044;-64
2023/05/08 20:27:58;;;;;;;14.55;10.18;;;20.30;99.90;;;;;;10128614;28;20088;-68
2023/05/08 20:32:49;;;;;;;16.73;10.50;;;20.20;99.90;;;;;;10113059;28;20043;-62
2023/05/08 20:37:44;;;;;;;17.42;10.13;;;20.20;99.90;;;;;;10109472;28;20124;-61
2023/05/08 20:42:35;;;;;;;15.25;9.80;;;20.20;99.90;;;;;;10115735;28;20040;-64
2023/05/08 20:47:26;;;;;;;16.00;9.88;;;20.00;99.90;;;;;;10114857;28;20029;-62
2023/05/08 20:52:17;;;;;;;11.02;7.68;;;19.80;99.90;;;;;;10134759;28;20063;-60
2023/05/08 20:57:07;;;;;;;14.45;7.95;;;19.50;99.90;;;;;;10140340;28;20041;-63
2023/05/08 21:01:58;;;;;;;12.02;7.50;;;19.40;99.90;;;;;;10139793;28;20059;-66
2023/05/08 21:06:49;;;;;;;13.07;8.18;;;19.40;99.90;;;;;;10139429;28;20028;-60
2023/05/08 21:11:39;;;;;;;11.50;7.35;;;19.40;99.90;;;;;;10139365;28;20082;-61
2023/05/08 21:16:30;;;;;;;11.88;7.28;;;19.50;99.90;;;;;;10135413;28;20500;-60
2023/05/08 21:21:21;;;;;;;11.68;7.80;;;19.60;99.90;;;;;;10144480;28;20473;-64
2023/05/08 21:26:11;;;;;;;9.20;6.80;;;19.60;99.90;;;;;;10145772;28;20426;-63
2023/05/08 21:31:02;;;;;;;8.05;6.30;;;19.70;99.90;;;;;;10141553;28;20040;-62
2023/05/08 21:35:53;;;;;;;10.05;7.40;;;19.80;99.90;;;;;;10136604;28;20032;-60
2023/05/08 21:40:44;;;;;;;9.02;6.60;;;19.60;99.90;;;;;;10124738;28;20281;-61
2023/05/08 21:45:34;;;;;;;9.50;5.90;;;19.70;99.90;;;;;;10143331;28;20367;-64
2023/05/08 21:50:27;;;;;;;7.65;5.28;;;19.80;99.90;;;;;;10140836;28;20044;-59
2023/05/08 21:55:18;;;;;;;7.43;5.13;;;19.80;99.90;;;;;;10153351;28;20490;-59
2023/05/08 22:00:09;;;;;;;5.80;4.80;;;19.90;99.90;;;;;;10144670;28;20032;-59
2023/05/08 22:05:00;;;;;;;7.95;6.13;;;19.80;99.90;;;;;;10141907;28;20052;-59
2023/05/08 22:09:50;;;;;;;10.85;6.40;;;19.80;99.90;;;;;;10140183;28;20048;-60
2023/05/08 22:14:41;;;;;;;8.48;5.53;;;19.70;99.90;;;;;;10139846;28;20075;-62
2023/05/08 22:19:32;;;;;;;8.50;5.50;;;19.60;99.90;;;;;;10124108;28;20035;-60
2023/05/08 22:24:24;;;;;;;6.63;5.35;;;19.80;99.90;;;;;;10125700;28;20029;-63
2023/05/08 22:29:17;;;;;;;11.15;6.15;;;19.70;99.90;;;;;;10121423;28;20029;-63
2023/05/08 22:34:08;;;;;;;10.20;6.10;;;19.70;99.90;;;;;;10121615;28;20101;-64
2023/05/08 22:38:59;;;;;;;8.80;5.97;;;19.70;99.90;;;;;;10121358;28;20067;-67
2023/05/08 22:43:50;;;;;;;9.15;5.68;;;19.90;99.90;;;;;;10141475;28;20441;-72
2023/05/08 22:48:41;;;;;;;8.27;6.57;;;19.90;99.90;;;;;;10140105;28;20096;-59
2023/05/08 22:53:32;;;;;;;9.18;6.00;;;19.90;99.90;;;;;;10126474;28;20036;-59
2023/05/08 22:58:24;;;;;;;9.27;5.82;;;19.90;99.90;;;;;;10137288;28;20043;-59
2023/05/08 23:03:15;;;;;;;6.63;5.38;;;20.00;99.90;;;;;;10129706;28;20036;-66
2023/05/08 23:08:05;;;;;;;10.00;5.88;;;19.90;99.90;;;;;;10151849;28;20024;-66
2023/05/08 23:12:56;;;;;;;7.93;5.55;;;19.90;99.90;;;;;;10152868;28;20081;-59
2023/05/08 23:17:47;;;;;;;7.85;5.85;;;19.80;99.90;;;;;;10144688;28;20105;-60
2023/05/08 23:22:37;;;;;;;10.13;6.35;;;19.70;99.90;;;;;;10151575;28;20029;-65
2023/05/08 23:27:28;;;;;;;7.97;5.57;;;19.50;99.90;;;;;;10157953;28;20060;-62
2023/05/08 23:32:19;;;;;;;9.52;5.85;;;19.40;99.90;;;;;;10169279;28;20171;-59
2023/05/08 23:37:09;;;;;;;12.75;5.72;;;19.30;99.90;;;;;;10165430;28;20027;-67
2023/05/08 23:42:00;;;;;;;8.20;5.82;;;19.30;99.90;;;;;;10143123;28;20433;-60
2023/05/08 23:46:50;;;;;;;6.43;4.88;;;19.30;99.90;;;;;;10147575;28;20024;-62
2023/05/08 23:51:41;;;;;;;7.22;5.30;;;19.20;99.90;;;;;;10149952;28;20052;-60
2023/05/08 23:56:32;;;;;;;8.90;5.70;;;19.10;99.90;;;;;;10136087;28;20521;-60
